エドモントン の空港の天気 - METARとTAF

エドモントン国際空港 ( CYEG / YEG ) - カナダ アルバータ州Edmonton Capital Region
飛行場実況気象(Metar)
観測時間01/22 21:00 MST (01/23 04:00 UTC)
風向・風速南南西 3m/s
視程10km以上
天気現象
少しの雲 雲底高度 2440m
少しの雲 雲底高度 7010m
気温-8℃
湿度93%
気圧1018.2hPa
METARCYEG 230400Z 20005KT 15SM FEW080 FEW230 M08/M09 A2992 RMK AC1CI1 AC TR CI TR SLP182
過去の天気等 Google飛行場航空写真 Wunderground天気予報

過去48時間のMETAR

飛行場予報(TAF)
発表時間: 1/22 19:40 MST (1/23 02:40 UTC)
予報対象時間: 22日20時 MST ~ 23日17時 MST
風向・風速不定 2m/s
視程10km以上
少しの雲 雲底高度 6,710m
22日22時 MST ~ 23日4時 MST に一時的に
風向・風速南南西 2m/s
23日4時 MST から
風向・風速西南西 3m/s
視程10km以上
全天の8割程度の雲 雲底高度 2,440m
23日9時 MST から
風向・風速南 3m/s
視程10km以上
全天の4割程度の雲 雲底高度 5,490m
23日11時 MST ~ 23日13時 MST に徐々に
風向・風速南東 3m/s
23日16時 MST から
風向・風速東南東 4m/s
視程10km以上
全天の8割程度の雲 雲底高度 6,100m
TAF CYEG 230240Z 2303/2324 VRB03KT P6SM FEW220
TEMPO 2305/2311 21004KT
FM231100 24005KT P6SM BKN080
FM231600 19005KT P6SM SCT180
BECMG 2318/2320 14005KT
FM232300 12008KT P6SM BKN200 RMK NXT FCST BY 230600Z